createdAt,value
2019-05-14T00:00:34.864Z,3.47
2019-05-14T00:03:02.343Z,3.75
2019-05-14T00:05:28.450Z,3.84
2019-05-14T00:07:54.416Z,3.70
2019-05-14T00:10:21.860Z,3.14
2019-05-14T00:13:07.988Z,3.28
2019-05-14T00:15:33.817Z,3.28
2019-05-14T00:18:01.238Z,2.91
2019-05-14T00:20:27.427Z,3.27
2019-05-14T00:22:53.381Z,3.58
2019-05-14T00:25:19.225Z,3.67
2019-05-14T00:27:45.070Z,3.80
2019-05-14T00:30:52.638Z,3.66
2019-05-14T00:33:18.504Z,3.12
2019-05-14T00:35:44.436Z,2.73
2019-05-14T00:38:11.929Z,2.99
2019-05-14T00:40:38.054Z,2.73
2019-05-14T00:43:03.900Z,2.52
2019-05-14T00:45:31.292Z,2.85
2019-05-14T00:47:57.554Z,3.24
2019-05-14T00:50:23.408Z,3.31
2019-05-14T00:52:51.477Z,3.51
2019-05-14T00:55:17.216Z,3.62
2019-05-14T00:57:43.037Z,3.67
2019-05-14T01:00:52.526Z,3.79
2019-05-14T01:03:18.255Z,3.73
2019-05-14T01:05:44.107Z,3.70
2019-05-14T01:08:31.854Z,3.46
2019-05-14T01:10:57.688Z,3.35
2019-05-14T01:13:23.635Z,3.44
2019-05-14T01:15:51.903Z,2.96
2019-05-14T01:18:17.231Z,3.10
2019-05-14T01:20:43.076Z,3.10
2019-05-14T01:23:08.896Z,3.06
2019-05-14T01:25:34.749Z,3.24
2019-05-14T01:30:47.943Z,3.42
2019-05-14T01:33:13.882Z,3.36
2019-05-14T01:35:41.897Z,3.05
2019-05-14T01:38:07.655Z,2.74
2019-05-14T01:40:33.485Z,2.77
2019-05-14T01:42:59.340Z,2.98
2019-05-14T01:45:45.066Z,3.08
2019-05-14T01:48:11.671Z,3.08
2019-05-14T01:50:38.680Z,3.10
2019-05-14T01:53:04.526Z,3.10
2019-05-14T01:55:32.450Z,3.11
2019-05-14T01:57:58.264Z,3.12
2019-05-14T02:00:24.186Z,2.90
2019-05-14T02:02:52.263Z,2.92
2019-05-14T02:05:17.909Z,2.96
2019-05-14T02:07:43.750Z,2.54
2019-05-14T02:10:52.693Z,2.71
2019-05-14T02:13:21.284Z,2.60
2019-05-14T02:15:46.809Z,2.48
2019-05-14T02:18:32.627Z,2.69
2019-05-14T02:21:18.454Z,2.76
2019-05-14T02:23:44.313Z,2.57
2019-05-14T02:26:11.394Z,2.48
2019-05-14T02:28:37.923Z,2.31
2019-05-14T02:31:04.228Z,2.77
2019-05-14T02:33:31.719Z,2.81
2019-05-14T02:35:59.937Z,2.88
2019-05-14T02:38:25.333Z,2.81
2019-05-14T02:40:51.273Z,2.62
2019-05-14T02:43:20.105Z,2.66
2019-05-14T02:46:00.780Z,2.76
2019-05-14T02:48:12.710Z,2.05
2019-05-14T02:50:39.681Z,2.13
2019-05-14T02:53:06.511Z,2.22
2019-05-14T02:55:32.537Z,1.90
2019-05-14T02:57:59.813Z,2.14
2019-05-14T03:00:26.165Z,2.31
2019-05-14T03:02:52.019Z,2.33
2019-05-14T03:05:19.189Z,2.45
2019-05-14T03:07:45.799Z,2.57
2019-05-14T03:10:11.762Z,2.44
2019-05-14T03:12:39.526Z,2.46
2019-05-14T03:15:49.495Z,2.37
2019-05-14T03:18:14.835Z,2.35
2019-05-14T03:20:40.665Z,2.36
2019-05-14T03:23:09.977Z,2.24
2019-05-14T03:25:34.461Z,2.37
2019-05-14T03:28:00.330Z,2.57
2019-05-14T03:30:31.581Z,2.61
2019-05-14T03:32:54.117Z,2.80
2019-05-14T03:35:24.334Z,2.82
2019-05-14T03:37:49.705Z,3.10
2019-05-14T03:40:15.761Z,3.23
2019-05-14T03:42:43.600Z,3.30
2019-05-14T03:45:51.083Z,3.32
2019-05-14T03:48:19.065Z,3.43
2019-05-14T03:50:44.796Z,3.67
2019-05-14T03:53:10.730Z,3.75
2019-05-14T03:55:40.011Z,3.70
2019-05-14T03:58:04.346Z,3.56
2019-05-14T04:01:11.851Z,3.55
2019-05-14T04:03:39.838Z,3.55
2019-05-14T04:06:49.692Z,3.68
2019-05-14T04:09:59.336Z,3.68
2019-05-14T04:13:08.943Z,3.79
2019-05-14T04:16:15.364Z,3.60
2019-05-14T04:19:22.906Z,3.58
2019-05-14T04:22:10.156Z,3.58
2019-05-14T04:25:19.449Z,3.57
2019-05-14T04:28:29.862Z,3.66
2019-05-14T04:30:55.451Z,3.71
2019-05-14T04:34:02.942Z,3.24
2019-05-14T04:36:29.960Z,3.41
2019-05-14T04:39:00.351Z,3.50
2019-05-14T04:41:24.902Z,3.51
2019-05-14T04:44:10.715Z,3.42
2019-05-14T04:46:59.720Z,3.58
2019-05-14T04:49:24.274Z,3.19
2019-05-14T04:51:50.604Z,3.29
2019-05-14T04:54:19.469Z,3.40
2019-05-14T04:56:49.752Z,3.36
2019-05-14T04:59:14.378Z,3.31
2019-05-14T05:01:40.462Z,3.46
2019-05-14T05:04:09.342Z,3.55
2019-05-14T05:06:34.043Z,3.66
2019-05-14T05:09:00.299Z,3.91
2019-05-14T05:11:29.105Z,4.07
2019-05-14T05:13:55.579Z,4.19
2019-05-14T05:16:21.533Z,4.26
2019-05-14T05:18:49.043Z,4.54
2019-05-14T05:21:15.234Z,4.59
2019-05-14T05:23:41.067Z,4.74
2019-05-14T05:26:09.210Z,4.96
2019-05-14T05:28:34.871Z,5.12
2019-05-14T05:31:00.930Z,5.21
2019-05-14T05:33:29.147Z,5.40
2019-05-14T05:35:54.719Z,5.47
2019-05-14T05:38:20.665Z,5.52
2019-05-14T05:40:48.563Z,5.63
2019-05-14T05:43:14.426Z,5.87
2019-05-14T05:45:40.371Z,5.95
2019-05-14T05:48:08.266Z,6.15
2019-05-14T05:50:34.264Z,6.36
2019-05-14T05:53:00.117Z,6.49
2019-05-14T05:55:28.627Z,6.68
2019-05-14T05:58:13.700Z,7.05
2019-05-14T06:00:40.410Z,7.05
2019-05-14T06:03:10.881Z,7.15
2019-05-14T06:05:35.465Z,7.36
2019-05-14T06:08:01.632Z,7.68
2019-05-14T06:10:29.186Z,7.80
2019-05-14T06:12:55.401Z,8.00
2019-05-14T06:15:21.354Z,7.98
2019-05-14T06:17:49.266Z,7.89
2019-05-14T06:20:14.963Z,8.35
2019-05-14T06:22:40.781Z,8.35
2019-05-14T06:25:10.530Z,8.47
2019-05-14T06:27:34.694Z,8.78
2019-05-14T06:30:00.528Z,9.08
2019-05-14T06:32:28.854Z,9.28
2019-05-14T06:34:54.244Z,9.55
2019-05-14T06:37:20.188Z,9.42
2019-05-14T06:39:48.321Z,9.61
2019-05-14T06:42:13.957Z,9.90
2019-05-14T06:44:39.894Z,9.86
2019-05-14T06:47:05.820Z,10.22
2019-05-14T06:49:31.779Z,10.19
2019-05-14T06:51:59.302Z,10.45
2019-05-14T06:54:25.479Z,10.14
2019-05-14T06:56:51.418Z,10.07
2019-05-14T06:59:18.173Z,10.56
2019-05-14T07:01:45.271Z,10.65
2019-05-14T07:04:11.291Z,10.77
2019-05-14T07:06:39.172Z,10.34
2019-05-14T07:09:05.214Z,10.74
2019-05-14T07:11:31.179Z,9.69
2019-05-14T07:13:58.144Z,9.69
2019-05-14T07:16:24.769Z,9.83
2019-05-14T07:18:53.964Z,9.76
2019-05-14T07:21:18.788Z,9.50
2019-05-14T07:23:48.697Z,9.58
2019-05-14T07:26:14.248Z,10.32
2019-05-14T07:28:42.491Z,9.66
2019-05-14T07:31:29.107Z,10.41
2019-05-14T07:33:58.092Z,10.41
2019-05-14T07:36:43.315Z,10.93
2019-05-14T07:39:09.635Z,10.93
2019-05-14T07:41:39.074Z,10.45
2019-05-14T07:44:05.118Z,10.08
2019-05-14T07:46:30.981Z,9.93
2019-05-14T07:49:07.147Z,9.93
2019-05-14T07:51:44.467Z,9.64
2019-05-14T07:54:10.393Z,9.64
2019-05-14T07:56:38.478Z,10.15
2019-05-14T07:59:04.295Z,10.10
2019-05-14T08:01:43.460Z,11.39
2019-05-14T08:04:11.276Z,11.39
2019-05-14T08:06:39.436Z,10.83
2019-05-14T08:09:24.946Z,10.41
2019-05-14T08:11:50.881Z,10.41
2019-05-14T08:14:18.502Z,10.55
2019-05-14T08:17:04.449Z,11.50
2019-05-14T08:19:34.009Z,11.50
2019-05-14T08:21:58.826Z,11.10
2019-05-14T08:24:48.734Z,11.49
2019-05-14T08:27:14.125Z,11.49
2019-05-14T08:29:40.256Z,11.04
2019-05-14T08:32:28.468Z,11.66
2019-05-14T08:35:15.753Z,11.15
2019-05-14T08:37:41.612Z,11.15
2019-05-14T08:40:49.089Z,10.10
2019-05-14T08:43:15.034Z,10.18
2019-05-14T08:45:40.884Z,10.15
2019-05-14T08:48:09.036Z,10.01
2019-05-14T08:50:34.872Z,10.29
2019-05-14T08:53:20.695Z,10.49
2019-05-14T08:55:48.812Z,10.49
2019-05-14T08:58:34.741Z,10.36
2019-05-14T09:01:00.836Z,10.78
2019-05-14T09:03:28.728Z,10.78
2019-05-14T09:05:57.734Z,11.22
2019-05-14T09:08:22.240Z,12.12
2019-05-14T09:10:49.724Z,12.12
2019-05-14T09:13:18.215Z,11.69
2019-05-14T09:15:43.590Z,11.69
2019-05-14T09:18:11.726Z,12.03
2019-05-14T09:20:38.171Z,11.56
2019-05-14T09:23:04.221Z,11.80
2019-05-14T09:25:30.095Z,11.80
2019-05-14T09:27:58.415Z,10.98
2019-05-14T09:30:23.995Z,10.46
2019-05-14T09:32:49.916Z,10.46
2019-05-14T09:35:18.568Z,10.28
2019-05-14T09:37:43.491Z,10.94
2019-05-14T09:40:09.460Z,10.94
2019-05-14T09:42:35.363Z,10.98
2019-05-14T09:45:01.442Z,11.94
2019-05-14T09:47:28.236Z,12.32
2019-05-14T09:49:54.302Z,12.39
2019-05-14T09:52:20.196Z,12.39
2019-05-14T09:54:46.079Z,11.84
2019-05-14T09:57:11.929Z,11.54
2019-05-14T09:59:38.426Z,11.13
2019-05-14T10:02:04.720Z,11.35
2019-05-14T10:04:30.676Z,11.88
2019-05-14T10:06:59.115Z,11.88
2019-05-14T10:09:24.645Z,12.89
2019-05-14T10:11:50.486Z,12.89
2019-05-14T10:14:16.356Z,13.15
2019-05-14T10:16:42.229Z,12.47
2019-05-14T10:19:08.080Z,11.65
2019-05-14T10:21:34.009Z,11.23
2019-05-14T10:23:59.866Z,11.03
2019-05-14T10:26:25.704Z,11.62
2019-05-14T10:28:51.549Z,12.12
2019-05-14T10:31:18.363Z,12.77
2019-05-14T10:33:45.341Z,13.00
2019-05-14T10:36:11.206Z,13.05
2019-05-14T10:38:38.838Z,13.33
2019-05-14T10:41:24.660Z,12.73
2019-05-14T10:43:50.489Z,12.73
2019-05-14T10:46:19.129Z,12.13
2019-05-14T10:49:16.506Z,11.48
2019-05-14T10:51:32.314Z,11.48
2019-05-14T10:53:59.398Z,11.34
2019-05-14T10:56:45.794Z,11.21
2019-05-14T10:59:11.724Z,10.97
2019-05-14T11:01:39.071Z,10.97
2019-05-14T11:04:25.197Z,10.76
2019-05-14T11:06:51.073Z,10.76
2019-05-14T11:09:18.077Z,10.86
2019-05-14T11:11:44.758Z,11.07
2019-05-14T11:14:10.702Z,11.87
2019-05-14T11:16:41.627Z,11.80
2019-05-14T11:19:24.293Z,11.49
2019-05-14T11:22:09.997Z,11.13
2019-05-14T11:24:38.323Z,11.13
2019-05-14T11:27:23.568Z,11.46
2019-05-14T11:29:49.414Z,11.46
2019-05-14T11:32:15.343Z,11.45
2019-05-14T11:34:41.304Z,11.55
2019-05-14T11:37:08.546Z,11.67
2019-05-14T11:39:54.898Z,12.58
2019-05-14T11:42:20.754Z,12.58
2019-05-14T11:44:48.645Z,13.21
2019-05-14T11:47:34.211Z,12.66
2019-05-14T11:50:00.158Z,12.36
2019-05-14T11:52:26.025Z,12.36
2019-05-14T11:54:51.863Z,11.99
2019-05-14T11:57:19.291Z,12.30
2019-05-14T12:00:29.536Z,11.97
2019-05-14T12:02:55.029Z,11.97
2019-05-14T12:05:20.864Z,11.94
2019-05-14T12:07:46.719Z,11.86
2019-05-14T12:10:12.574Z,11.79
2019-05-14T12:12:38.505Z,11.90
2019-05-14T12:15:48.325Z,11.59
2019-05-14T12:18:33.644Z,11.11
2019-05-14T12:20:59.688Z,11.11
2019-05-14T12:23:29.618Z,11.50
2019-05-14T12:25:54.843Z,12.17
2019-05-14T12:28:20.724Z,12.76
2019-05-14T12:30:48.944Z,12.57
2019-05-14T12:33:34.203Z,10.99
2019-05-14T12:36:20.051Z,11.37
2019-05-14T12:38:45.927Z,11.37
2019-05-14T12:41:11.819Z,11.24
2019-05-14T12:43:39.689Z,12.41
2019-05-14T12:46:25.437Z,12.00
2019-05-14T12:49:11.825Z,11.24
2019-05-14T12:51:59.192Z,10.71
2019-05-14T12:54:45.471Z,10.32
2019-05-14T12:57:11.423Z,10.32
2019-05-14T12:59:38.182Z,11.66
2019-05-14T13:02:05.132Z,12.46
2019-05-14T13:04:50.872Z,12.78
2019-05-14T13:07:19.065Z,12.81
2019-05-14T13:10:04.490Z,11.65
2019-05-14T13:12:30.329Z,11.65
2019-05-14T13:14:57.882Z,10.07
2019-05-14T13:17:43.917Z,8.08
2019-05-14T13:20:13.618Z,8.08
2019-05-14T13:23:19.311Z,7.97
2019-05-14T13:25:45.393Z,8.27
2019-05-14T13:28:11.433Z,8.51
2019-05-14T13:30:37.410Z,8.82
2019-05-14T13:33:03.349Z,9.47
2019-05-14T13:35:29.369Z,10.18
2019-05-14T13:37:55.422Z,10.74
2019-05-14T13:40:21.580Z,11.10
2019-05-14T13:42:49.177Z,11.18
2019-05-14T13:45:15.234Z,12.56
2019-05-14T13:47:41.179Z,12.56
2019-05-14T13:50:08.496Z,11.29
2019-05-14T13:52:35.348Z,12.11
2019-05-14T13:55:01.318Z,12.20
2019-05-14T13:57:28.692Z,12.35
2019-05-14T13:59:55.172Z,12.65
2019-05-14T14:02:21.060Z,13.04
2019-05-14T14:04:48.280Z,13.03
2019-05-14T14:07:14.876Z,13.53
2019-05-14T14:09:40.856Z,13.31
2019-05-14T14:12:08.247Z,12.48
2019-05-14T14:14:34.499Z,12.59
2019-05-14T14:17:00.371Z,12.57
2019-05-14T14:19:28.185Z,12.75
2019-05-14T14:21:54.189Z,13.10
2019-05-14T14:24:20.121Z,13.34
2019-05-14T14:26:45.943Z,13.71
2019-05-14T14:29:12.001Z,13.80
2019-05-14T14:31:41.420Z,13.81
2019-05-14T14:34:05.795Z,14.02
2019-05-14T14:36:55.084Z,13.80
2019-05-14T14:39:19.509Z,13.16
2019-05-14T14:41:45.377Z,13.07
2019-05-14T14:44:31.386Z,12.62
2019-05-14T14:46:57.845Z,12.57
2019-05-14T14:49:44.978Z,12.43
2019-05-14T14:52:12.178Z,11.54
2019-05-14T14:54:58.930Z,11.37
2019-05-14T14:57:46.583Z,10.95
2019-05-14T15:00:54.227Z,10.95
2019-05-14T15:03:21.141Z,11.00
2019-05-14T15:05:49.803Z,10.78
2019-05-14T15:08:15.797Z,10.85
2019-05-14T15:10:41.757Z,11.05
2019-05-14T15:13:09.258Z,11.35
2019-05-14T15:15:35.521Z,11.78
2019-05-14T15:18:01.481Z,11.20
2019-05-14T15:21:09.715Z,11.18
2019-05-14T15:24:21.139Z,10.97
2019-05-14T15:27:14.645Z,8.88
